sensor_id;sensor_type;location;lat;lon;timestamp;temperature;humidity
37240;DHT22;23130;48.760;9.178;2022-09-09T00:00:49;15.20;99.90
37240;DHT22;23130;48.760;9.178;2022-09-09T00:03:26;15.20;99.90
37240;DHT22;23130;48.760;9.178;2022-09-09T00:06:10;15.30;99.90
37240;DHT22;23130;48.760;9.178;2022-09-09T00:08:58;15.40;99.90
37240;DHT22;23130;48.760;9.178;2022-09-09T00:17:18;15.20;99.90
37240;DHT22;23130;48.760;9.178;2022-09-09T00:19:58;15.20;99.90
37240;DHT22;23130;48.760;9.178;2022-09-09T00:22:28;15.10;99.90
37240;DHT22;23130;48.760;9.178;2022-09-09T00:25:40;15.20;99.90
37240;DHT22;23130;48.760;9.178;2022-09-09T00:27:48;15.10;99.90
37240;DHT22;23130;48.760;9.178;2022-09-09T00:32:55;15.30;99.90
37240;DHT22;23130;48.760;9.178;2022-09-09T00:35:34;15.30;99.90
37240;DHT22;23130;48.760;9.178;2022-09-09T00:38:26;15.40;99.90
37240;DHT22;23130;48.760;9.178;2022-09-09T00:43:36;15.60;99.90
37240;DHT22;23130;48.760;9.178;2022-09-09T00:51:39;15.60;99.90
37240;DHT22;23130;48.760;9.178;2022-09-09T00:54:28;15.70;99.90
37240;DHT22;23130;48.760;9.178;2022-09-09T00:57:23;15.70;99.90
37240;DHT22;23130;48.760;9.178;2022-09-09T01:02:41;15.80;99.90
37240;DHT22;23130;48.760;9.178;2022-09-09T01:05:35;16.00;99.90
37240;DHT22;23130;48.760;9.178;2022-09-09T01:08:08;16.00;99.90
37240;DHT22;23130;48.760;9.178;2022-09-09T01:10:53;16.00;99.90
37240;DHT22;23130;48.760;9.178;2022-09-09T01:13:26;16.10;99.90
37240;DHT22;23130;48.760;9.178;2022-09-09T01:15:53;16.10;99.90
37240;DHT22;23130;48.760;9.178;2022-09-09T01:18:29;16.10;99.90
37240;DHT22;23130;48.760;9.178;2022-09-09T01:23:49;16.10;99.90
37240;DHT22;23130;48.760;9.178;2022-09-09T01:28:52;16.10;99.90
37240;DHT22;23130;48.760;9.178;2022-09-09T01:31:27;16.10;99.90
37240;DHT22;23130;48.760;9.178;2022-09-09T01:33:53;16.10;99.90
37240;DHT22;23130;48.760;9.178;2022-09-09T01:38:51;16.00;99.90
37240;DHT22;23130;48.760;9.178;2022-09-09T01:41:17;16.00;99.90
37240;DHT22;23130;48.760;9.178;2022-09-09T01:43:43;16.00;99.90
37240;DHT22;23130;48.760;9.178;2022-09-09T01:46:09;15.90;99.90
37240;DHT22;23130;48.760;9.178;2022-09-09T01:48:37;15.90;99.90
37240;DHT22;23130;48.760;9.178;2022-09-09T01:51:03;15.90;99.90
37240;DHT22;23130;48.760;9.178;2022-09-09T01:53:29;15.90;99.90
37240;DHT22;23130;48.760;9.178;2022-09-09T01:56:08;15.90;99.90
37240;DHT22;23130;48.760;9.178;2022-09-09T01:59:12;15.80;99.90
37240;DHT22;23130;48.760;9.178;2022-09-09T02:01:57;15.70;99.90
37240;DHT22;23130;48.760;9.178;2022-09-09T02:04:29;15.60;99.90
37240;DHT22;23130;48.760;9.178;2022-09-09T02:06:57;15.60;99.90
37240;DHT22;23130;48.760;9.178;2022-09-09T02:09:24;15.50;99.90
37240;DHT22;23130;48.760;9.178;2022-09-09T02:12:05;15.40;99.90
37240;DHT22;23130;48.760;9.178;2022-09-09T02:14:37;15.50;99.90
37240;DHT22;23130;48.760;9.178;2022-09-09T02:17:10;15.50;99.90
37240;DHT22;23130;48.760;9.178;2022-09-09T02:19:42;15.50;99.90
37240;DHT22;23130;48.760;9.178;2022-09-09T02:22:11;15.50;99.90
37240;DHT22;23130;48.760;9.178;2022-09-09T02:24:40;15.40;99.90
37240;DHT22;23130;48.760;9.178;2022-09-09T02:27:07;15.30;99.90
37240;DHT22;23130;48.760;9.178;2022-09-09T02:29:41;15.20;99.90
37240;DHT22;23130;48.760;9.178;2022-09-09T02:32:09;15.20;99.90
37240;DHT22;23130;48.760;9.178;2022-09-09T02:34:42;15.10;99.90
37240;DHT22;23130;48.760;9.178;2022-09-09T02:37:09;15.10;99.90
37240;DHT22;23130;48.760;9.178;2022-09-09T02:39:36;15.10;99.90
37240;DHT22;23130;48.760;9.178;2022-09-09T02:42:04;15.00;99.90
37240;DHT22;23130;48.760;9.178;2022-09-09T02:44:30;15.00;99.90
37240;DHT22;23130;48.760;9.178;2022-09-09T02:52:16;14.90;99.90
37240;DHT22;23130;48.760;9.178;2022-09-09T02:54:44;14.80;99.90
37240;DHT22;23130;48.760;9.178;2022-09-09T02:57:16;14.70;99.90
37240;DHT22;23130;48.760;9.178;2022-09-09T02:59:44;14.70;99.90
37240;DHT22;23130;48.760;9.178;2022-09-09T03:02:10;14.60;99.90
37240;DHT22;23130;48.760;9.178;2022-09-09T03:04:37;14.50;99.90
37240;DHT22;23130;48.760;9.178;2022-09-09T03:07:03;14.60;99.90
37240;DHT22;23130;48.760;9.178;2022-09-09T03:09:29;14.60;99.90
37240;DHT22;23130;48.760;9.178;2022-09-09T03:11:55;14.60;99.90
37240;DHT22;23130;48.760;9.178;2022-09-09T03:14:22;14.50;99.90
37240;DHT22;23130;48.760;9.178;2022-09-09T03:16:54;14.50;99.90
37240;DHT22;23130;48.760;9.178;2022-09-09T03:19:20;14.60;99.90
37240;DHT22;23130;48.760;9.178;2022-09-09T03:21:47;14.60;99.90
37240;DHT22;23130;48.760;9.178;2022-09-09T03:24:13;14.70;99.90
37240;DHT22;23130;48.760;9.178;2022-09-09T03:26:39;14.80;99.90
37240;DHT22;23130;48.760;9.178;2022-09-09T03:29:06;14.90;99.90
37240;DHT22;23130;48.760;9.178;2022-09-09T03:31:33;14.90;99.90
37240;DHT22;23130;48.760;9.178;2022-09-09T03:33:59;15.00;99.90
37240;DHT22;23130;48.760;9.178;2022-09-09T03:36:28;15.00;99.90
37240;DHT22;23130;48.760;9.178;2022-09-09T03:38:55;15.00;99.90
37240;DHT22;23130;48.760;9.178;2022-09-09T03:41:24;15.00;99.90
37240;DHT22;23130;48.760;9.178;2022-09-09T03:43:50;15.10;99.90
37240;DHT22;23130;48.760;9.178;2022-09-09T03:46:17;15.20;99.90
37240;DHT22;23130;48.760;9.178;2022-09-09T03:48:43;15.30;99.90
37240;DHT22;23130;48.760;9.178;2022-09-09T03:51:09;15.30;99.90
37240;DHT22;23130;48.760;9.178;2022-09-09T03:53:34;15.50;99.90
37240;DHT22;23130;48.760;9.178;2022-09-09T03:56:01;15.50;99.90
37240;DHT22;23130;48.760;9.178;2022-09-09T03:58:27;15.50;99.90
37240;DHT22;23130;48.760;9.178;2022-09-09T04:00:57;15.50;99.90
37240;DHT22;23130;48.760;9.178;2022-09-09T04:03:24;15.50;99.90
37240;DHT22;23130;48.760;9.178;2022-09-09T04:05:51;15.40;99.90
37240;DHT22;23130;48.760;9.178;2022-09-09T04:08:18;15.40;99.90
37240;DHT22;23130;48.760;9.178;2022-09-09T04:10:45;15.30;99.90
37240;DHT22;23130;48.760;9.178;2022-09-09T04:13:12;15.30;99.90
37240;DHT22;23130;48.760;9.178;2022-09-09T04:15:39;15.20;99.90
37240;DHT22;23130;48.760;9.178;2022-09-09T04:18:05;15.10;99.90
37240;DHT22;23130;48.760;9.178;2022-09-09T04:20:31;15.00;99.90
37240;DHT22;23130;48.760;9.178;2022-09-09T04:22:58;14.90;99.90
37240;DHT22;23130;48.760;9.178;2022-09-09T04:25:24;14.90;99.90
37240;DHT22;23130;48.760;9.178;2022-09-09T04:27:56;14.90;99.90
37240;DHT22;23130;48.760;9.178;2022-09-09T04:30:23;14.90;99.90
37240;DHT22;23130;48.760;9.178;2022-09-09T04:32:50;15.00;99.90
37240;DHT22;23130;48.760;9.178;2022-09-09T04:35:16;14.90;99.90
37240;DHT22;23130;48.760;9.178;2022-09-09T04:37:41;15.00;99.90
37240;DHT22;23130;48.760;9.178;2022-09-09T04:40:08;14.90;99.90
37240;DHT22;23130;48.760;9.178;2022-09-09T04:42:38;15.00;99.90
37240;DHT22;23130;48.760;9.178;2022-09-09T04:45:05;14.90;99.90
37240;DHT22;23130;48.760;9.178;2022-09-09T04:47:32;14.90;99.90
37240;DHT22;23130;48.760;9.178;2022-09-09T04:50:01;14.90;99.90
37240;DHT22;23130;48.760;9.178;2022-09-09T04:52:26;14.90;99.90
37240;DHT22;23130;48.760;9.178;2022-09-09T04:54:52;14.80;99.90
37240;DHT22;23130;48.760;9.178;2022-09-09T04:57:19;14.80;99.90
37240;DHT22;23130;48.760;9.178;2022-09-09T04:59:48;14.80;99.90
37240;DHT22;23130;48.760;9.178;2022-09-09T05:02:14;14.70;99.90
37240;DHT22;23130;48.760;9.178;2022-09-09T05:04:39;14.60;99.90
37240;DHT22;23130;48.760;9.178;2022-09-09T05:07:08;14.60;99.90
37240;DHT22;23130;48.760;9.178;2022-09-09T05:09:34;14.60;99.90
37240;DHT22;23130;48.760;9.178;2022-09-09T05:12:00;14.50;99.90
37240;DHT22;23130;48.760;9.178;2022-09-09T05:14:26;14.50;99.90
37240;DHT22;23130;48.760;9.178;2022-09-09T05:16:52;14.60;99.90
37240;DHT22;23130;48.760;9.178;2022-09-09T05:19:24;14.70;99.90
37240;DHT22;23130;48.760;9.178;2022-09-09T05:21:49;14.80;99.90
37240;DHT22;23130;48.760;9.178;2022-09-09T05:24:18;14.90;99.90
37240;DHT22;23130;48.760;9.178;2022-09-09T05:26:44;15.00;99.90
37240;DHT22;23130;48.760;9.178;2022-09-09T05:29:09;15.10;99.90
37240;DHT22;23130;48.760;9.178;2022-09-09T05:31:35;15.20;99.90
37240;DHT22;23130;48.760;9.178;2022-09-09T05:34:02;15.30;99.90
37240;DHT22;23130;48.760;9.178;2022-09-09T05:36:27;15.40;99.90
37240;DHT22;23130;48.760;9.178;2022-09-09T05:38:53;15.50;99.90
37240;DHT22;23130;48.760;9.178;2022-09-09T05:41:22;15.50;99.90
37240;DHT22;23130;48.760;9.178;2022-09-09T05:43:48;15.60;99.90
37240;DHT22;23130;48.760;9.178;2022-09-09T05:46:27;15.70;99.90
37240;DHT22;23130;48.760;9.178;2022-09-09T05:48:53;15.80;99.90
37240;DHT22;23130;48.760;9.178;2022-09-09T05:51:25;15.80;99.90
37240;DHT22;23130;48.760;9.178;2022-09-09T05:53:51;15.90;99.90
37240;DHT22;23130;48.760;9.178;2022-09-09T05:56:19;15.90;99.90
37240;DHT22;23130;48.760;9.178;2022-09-09T05:58:45;16.00;99.90
37240;DHT22;23130;48.760;9.178;2022-09-09T06:01:17;16.10;99.90
37240;DHT22;23130;48.760;9.178;2022-09-09T06:03:44;16.20;99.90
37240;DHT22;23130;48.760;9.178;2022-09-09T06:06:16;16.20;99.90
37240;DHT22;23130;48.760;9.178;2022-09-09T06:08:43;16.30;99.90
37240;DHT22;23130;48.760;9.178;2022-09-09T06:11:21;16.30;99.90
37240;DHT22;23130;48.760;9.178;2022-09-09T06:13:48;16.40;99.90
37240;DHT22;23130;48.760;9.178;2022-09-09T06:16:18;16.40;99.90
37240;DHT22;23130;48.760;9.178;2022-09-09T06:18:44;16.40;99.90
37240;DHT22;23130;48.760;9.178;2022-09-09T06:21:17;16.40;99.90
37240;DHT22;23130;48.760;9.178;2022-09-09T06:23:44;16.50;99.90
37240;DHT22;23130;48.760;9.178;2022-09-09T06:26:14;16.50;99.90
37240;DHT22;23130;48.760;9.178;2022-09-09T06:28:40;16.50;99.90
37240;DHT22;23130;48.760;9.178;2022-09-09T06:31:09;16.50;99.90
37240;DHT22;23130;48.760;9.178;2022-09-09T06:33:37;16.50;99.90
37240;DHT22;23130;48.760;9.178;2022-09-09T06:36:11;16.60;99.90
37240;DHT22;23130;48.760;9.178;2022-09-09T06:38:37;16.60;99.90
37240;DHT22;23130;48.760;9.178;2022-09-09T06:41:03;16.70;99.90
37240;DHT22;23130;48.760;9.178;2022-09-09T06:43:29;16.80;99.90
37240;DHT22;23130;48.760;9.178;2022-09-09T06:46:23;16.90;99.90
37240;DHT22;23130;48.760;9.178;2022-09-09T06:48:48;17.00;99.90
37240;DHT22;23130;48.760;9.178;2022-09-09T06:51:19;17.10;99.90
37240;DHT22;23130;48.760;9.178;2022-09-09T06:53:47;17.20;99.90
37240;DHT22;23130;48.760;9.178;2022-09-09T06:58:41;17.40;99.90
37240;DHT22;23130;48.760;9.178;2022-09-09T07:01:12;17.50;99.90
37240;DHT22;23130;48.760;9.178;2022-09-09T07:03:39;17.60;99.90
37240;DHT22;23130;48.760;9.178;2022-09-09T07:06:06;17.70;99.90
37240;DHT22;23130;48.760;9.178;2022-09-09T07:08:32;17.90;99.90
37240;DHT22;23130;48.760;9.178;2022-09-09T07:11:03;17.90;99.90
37240;DHT22;23130;48.760;9.178;2022-09-09T07:13:30;18.00;99.90
37240;DHT22;23130;48.760;9.178;2022-09-09T07:16:07;18.20;99.90
37240;DHT22;23130;48.760;9.178;2022-09-09T07:18:33;18.20;99.90
37240;DHT22;23130;48.760;9.178;2022-09-09T07:21:00;18.40;99.90
37240;DHT22;23130;48.760;9.178;2022-09-09T07:23:27;18.50;99.90
37240;DHT22;23130;48.760;9.178;2022-09-09T07:25:53;18.70;99.90
37240;DHT22;23130;48.760;9.178;2022-09-09T07:28:19;18.90;99.90
37240;DHT22;23130;48.760;9.178;2022-09-09T07:31:03;19.00;99.90
37240;DHT22;23130;48.760;9.178;2022-09-09T07:33:31;19.20;99.90
37240;DHT22;23130;48.760;9.178;2022-09-09T07:36:06;19.30;99.90
37240;DHT22;23130;48.760;9.178;2022-09-09T07:38:40;19.40;99.90
37240;DHT22;23130;48.760;9.178;2022-09-09T07:41:08;19.50;99.90
37240;DHT22;23130;48.760;9.178;2022-09-09T07:43:41;19.70;99.90
37240;DHT22;23130;48.760;9.178;2022-09-09T07:46:07;19.90;99.90
37240;DHT22;23130;48.760;9.178;2022-09-09T07:48:33;20.10;99.90
37240;DHT22;23130;48.760;9.178;2022-09-09T07:51:14;20.30;99.90
37240;DHT22;23130;48.760;9.178;2022-09-09T07:53:43;20.60;99.90
37240;DHT22;23130;48.760;9.178;2022-09-09T07:56:12;20.50;99.90
37240;DHT22;23130;48.760;9.178;2022-09-09T07:58:39;20.20;99.90
37240;DHT22;23130;48.760;9.178;2022-09-09T08:01:17;20.00;99.90
37240;DHT22;23130;48.760;9.178;2022-09-09T08:03:47;20.10;99.90
37240;DHT22;23130;48.760;9.178;2022-09-09T08:06:17;20.10;99.90
37240;DHT22;23130;48.760;9.178;2022-09-09T08:08:42;20.00;99.90
37240;DHT22;23130;48.760;9.178;2022-09-09T08:11:14;20.10;99.90
37240;DHT22;23130;48.760;9.178;2022-09-09T08:13:41;20.20;99.90
37240;DHT22;23130;48.760;9.178;2022-09-09T08:16:13;20.10;99.90
37240;DHT22;23130;48.760;9.178;2022-09-09T08:18:39;20.00;99.90
37240;DHT22;23130;48.760;9.178;2022-09-09T08:21:15;20.00;99.90
37240;DHT22;23130;48.760;9.178;2022-09-09T08:23:44;19.90;99.90
37240;DHT22;23130;48.760;9.178;2022-09-09T08:26:19;20.00;99.90
37240;DHT22;23130;48.760;9.178;2022-09-09T08:28:50;19.80;99.90
37240;DHT22;23130;48.760;9.178;2022-09-09T08:31:19;19.80;99.90
37240;DHT22;23130;48.760;9.178;2022-09-09T08:33:46;19.80;99.90
37240;DHT22;23130;48.760;9.178;2022-09-09T08:36:15;19.90;99.90
37240;DHT22;23130;48.760;9.178;2022-09-09T08:38:41;20.10;99.90
37240;DHT22;23130;48.760;9.178;2022-09-09T08:41:44;20.20;99.90
37240;DHT22;23130;48.760;9.178;2022-09-09T08:50:28;20.40;99.90
37240;DHT22;23130;48.760;9.178;2022-09-09T08:53:05;20.40;99.90
37240;DHT22;23130;48.760;9.178;2022-09-09T08:58:19;20.60;99.90
37240;DHT22;23130;48.760;9.178;2022-09-09T09:04:29;20.70;99.90
37240;DHT22;23130;48.760;9.178;2022-09-09T09:12:44;20.60;99.90
37240;DHT22;23130;48.760;9.178;2022-09-09T09:15:32;20.50;99.90
37240;DHT22;23130;48.760;9.178;2022-09-09T09:18:03;20.60;99.90
37240;DHT22;23130;48.760;9.178;2022-09-09T09:23:20;20.80;99.90
37240;DHT22;23130;48.760;9.178;2022-09-09T09:25:47;20.70;99.90
37240;DHT22;23130;48.760;9.178;2022-09-09T09:28:27;20.30;99.90
37240;DHT22;23130;48.760;9.178;2022-09-09T09:31:04;19.80;99.90
37240;DHT22;23130;48.760;9.178;2022-09-09T09:33:49;19.30;99.90
37240;DHT22;23130;48.760;9.178;2022-09-09T09:36:15;18.70;99.90
37240;DHT22;23130;48.760;9.178;2022-09-09T09:38:56;17.90;99.90
37240;DHT22;23130;48.760;9.178;2022-09-09T09:41:38;17.50;99.90
37240;DHT22;23130;48.760;9.178;2022-09-09T09:44:06;17.60;99.90
37240;DHT22;23130;48.760;9.178;2022-09-09T09:46:44;17.90;99.90
37240;DHT22;23130;48.760;9.178;2022-09-09T09:49:10;18.30;99.90
37240;DHT22;23130;48.760;9.178;2022-09-09T09:51:35;18.50;99.90
37240;DHT22;23130;48.760;9.178;2022-09-09T09:54:28;18.70;99.90
37240;DHT22;23130;48.760;9.178;2022-09-09T09:56:55;18.80;99.90
37240;DHT22;23130;48.760;9.178;2022-09-09T10:01:53;19.00;99.90
37240;DHT22;23130;48.760;9.178;2022-09-09T10:04:23;19.20;99.90
37240;DHT22;23130;48.760;9.178;2022-09-09T10:06:50;19.40;99.90
37240;DHT22;23130;48.760;9.178;2022-09-09T10:09:25;19.50;99.90
37240;DHT22;23130;48.760;9.178;2022-09-09T10:18:02;19.90;99.90
37240;DHT22;23130;48.760;9.178;2022-09-09T10:20:51;20.10;99.90
37240;DHT22;23130;48.760;9.178;2022-09-09T10:29:26;20.30;99.90
37240;DHT22;23130;48.760;9.178;2022-09-09T10:45:57;20.90;99.90
37240;DHT22;23130;48.760;9.178;2022-09-09T10:48:41;21.10;99.90
37240;DHT22;23130;48.760;9.178;2022-09-09T10:51:33;21.20;99.90
37240;DHT22;23130;48.760;9.178;2022-09-09T10:54:26;21.40;99.90
37240;DHT22;23130;48.760;9.178;2022-09-09T10:56:59;21.50;99.90
37240;DHT22;23130;48.760;9.178;2022-09-09T10:59:33;21.90;99.90
37240;DHT22;23130;48.760;9.178;2022-09-09T11:02:15;22.20;99.90
37240;DHT22;23130;48.760;9.178;2022-09-09T11:04:50;22.80;99.90
37240;DHT22;23130;48.760;9.178;2022-09-09T11:07:33;23.10;99.90
37240;DHT22;23130;48.760;9.178;2022-09-09T11:10:11;23.00;99.90
37240;DHT22;23130;48.760;9.178;2022-09-09T11:12:45;22.70;99.90
37240;DHT22;23130;48.760;9.178;2022-09-09T11:15:31;22.50;99.90
37240;DHT22;23130;48.760;9.178;2022-09-09T11:18:02;22.70;99.90
37240;DHT22;23130;48.760;9.178;2022-09-09T11:20:29;22.80;99.90
37240;DHT22;23130;48.760;9.178;2022-09-09T11:25:38;22.90;99.90
37240;DHT22;23130;48.760;9.178;2022-09-09T11:28:19;22.20;99.90
37240;DHT22;23130;48.760;9.178;2022-09-09T11:37:00;20.70;99.90
37240;DHT22;23130;48.760;9.178;2022-09-09T11:42:20;20.60;99.90
37240;DHT22;23130;48.760;9.178;2022-09-09T11:44:47;20.70;99.90
37240;DHT22;23130;48.760;9.178;2022-09-09T11:47:29;20.60;99.90
37240;DHT22;23130;48.760;9.178;2022-09-09T11:52:45;20.70;99.90
37240;DHT22;23130;48.760;9.178;2022-09-09T11:57:57;21.00;99.90
37240;DHT22;23130;48.760;9.178;2022-09-09T12:02:58;21.20;99.90
37240;DHT22;23130;48.760;9.178;2022-09-09T12:05:39;21.10;99.90
37240;DHT22;23130;48.760;9.178;2022-09-09T12:08:07;21.40;99.90
37240;DHT22;23130;48.760;9.178;2022-09-09T12:10:37;21.20;99.90
37240;DHT22;23130;48.760;9.178;2022-09-09T12:16:26;21.10;99.90
37240;DHT22;23130;48.760;9.178;2022-09-09T12:19:03;20.90;99.90
37240;DHT22;23130;48.760;9.178;2022-09-09T12:21:50;20.80;99.90
37240;DHT22;23130;48.760;9.178;2022-09-09T12:24:36;20.90;99.90
37240;DHT22;23130;48.760;9.178;2022-09-09T12:27:31;21.20;99.90
37240;DHT22;23130;48.760;9.178;2022-09-09T12:30:00;21.50;99.90
37240;DHT22;23130;48.760;9.178;2022-09-09T12:32:27;21.70;99.90
37240;DHT22;23130;48.760;9.178;2022-09-09T12:39:55;21.60;99.90
37240;DHT22;23130;48.760;9.178;2022-09-09T12:42:22;21.50;99.90
37240;DHT22;23130;48.760;9.178;2022-09-09T12:44:59;21.60;99.90
37240;DHT22;23130;48.760;9.178;2022-09-09T12:50:30;21.30;99.90
37240;DHT22;23130;48.760;9.178;2022-09-09T12:52:59;21.40;99.90
37240;DHT22;23130;48.760;9.178;2022-09-09T12:55:31;21.40;99.90
37240;DHT22;23130;48.760;9.178;2022-09-09T12:58:00;21.50;99.90
37240;DHT22;23130;48.760;9.178;2022-09-09T13:00:26;21.50;99.90
37240;DHT22;23130;48.760;9.178;2022-09-09T13:02:57;21.50;99.90
37240;DHT22;23130;48.760;9.178;2022-09-09T13:05:26;21.70;99.90
37240;DHT22;23130;48.760;9.178;2022-09-09T13:08:04;21.90;99.90
37240;DHT22;23130;48.760;9.178;2022-09-09T13:10:37;21.70;99.90
37240;DHT22;23130;48.760;9.178;2022-09-09T13:13:12;21.60;99.90
37240;DHT22;23130;48.760;9.178;2022-09-09T13:15:39;21.60;99.90
37240;DHT22;23130;48.760;9.178;2022-09-09T13:18:10;21.50;99.90
37240;DHT22;23130;48.760;9.178;2022-09-09T13:20:38;21.50;99.90
37240;DHT22;23130;48.760;9.178;2022-09-09T13:23:05;21.70;99.90
37240;DHT22;23130;48.760;9.178;2022-09-09T13:25:30;22.10;99.90
37240;DHT22;23130;48.760;9.178;2022-09-09T13:30:30;22.70;99.90
37240;DHT22;23130;48.760;9.178;2022-09-09T13:35:48;22.60;99.90
37240;DHT22;23130;48.760;9.178;2022-09-09T13:38:15;22.70;99.90
37240;DHT22;23130;48.760;9.178;2022-09-09T13:40:52;22.70;99.90
37240;DHT22;23130;48.760;9.178;2022-09-09T13:43:22;22.50;99.90
37240;DHT22;23130;48.760;9.178;2022-09-09T13:46:03;22.30;99.90
37240;DHT22;23130;48.760;9.178;2022-09-09T13:48:29;21.90;99.90
37240;DHT22;23130;48.760;9.178;2022-09-09T13:51:01;22.00;99.90
37240;DHT22;23130;48.760;9.178;2022-09-09T13:53:27;22.20;99.90
37240;DHT22;23130;48.760;9.178;2022-09-09T13:55:53;22.40;99.90
37240;DHT22;23130;48.760;9.178;2022-09-09T13:58:19;22.50;99.90
37240;DHT22;23130;48.760;9.178;2022-09-09T14:00:46;22.50;99.90
37240;DHT22;23130;48.760;9.178;2022-09-09T14:03:12;22.70;99.90
37240;DHT22;23130;48.760;9.178;2022-09-09T14:05:39;23.10;99.90
37240;DHT22;23130;48.760;9.178;2022-09-09T14:08:06;23.20;99.90
37240;DHT22;23130;48.760;9.178;2022-09-09T14:10:32;23.20;99.40
37240;DHT22;23130;48.760;9.178;2022-09-09T14:12:57;23.20;99.40
37240;DHT22;23130;48.760;9.178;2022-09-09T14:15:23;23.20;99.30
37240;DHT22;23130;48.760;9.178;2022-09-09T14:17:49;23.20;99.60
37240;DHT22;23130;48.760;9.178;2022-09-09T14:20:15;23.10;99.60
37240;DHT22;23130;48.760;9.178;2022-09-09T14:22:42;23.00;99.60
37240;DHT22;23130;48.760;9.178;2022-09-09T14:25:09;23.10;99.40
37240;DHT22;23130;48.760;9.178;2022-09-09T14:27:34;23.00;99.00
37240;DHT22;23130;48.760;9.178;2022-09-09T14:30:00;22.90;99.30
37240;DHT22;23130;48.760;9.178;2022-09-09T14:32:26;22.70;99.20
37240;DHT22;23130;48.760;9.178;2022-09-09T14:34:52;22.60;98.70
37240;DHT22;23130;48.760;9.178;2022-09-09T14:37:18;22.80;98.30
37240;DHT22;23130;48.760;9.178;2022-09-09T14:39:44;23.10;98.30
37240;DHT22;23130;48.760;9.178;2022-09-09T14:42:13;23.00;97.90
37240;DHT22;23130;48.760;9.178;2022-09-09T14:44:39;22.90;97.70
37240;DHT22;23130;48.760;9.178;2022-09-09T14:47:06;22.80;98.00
37240;DHT22;23130;48.760;9.178;2022-09-09T14:49:33;22.90;98.30
37240;DHT22;23130;48.760;9.178;2022-09-09T14:51:59;23.10;98.60
37240;DHT22;23130;48.760;9.178;2022-09-09T14:54:24;23.30;98.00
37240;DHT22;23130;48.760;9.178;2022-09-09T14:56:50;23.50;98.40
37240;DHT22;23130;48.760;9.178;2022-09-09T14:59:16;23.50;97.20
37240;DHT22;23130;48.760;9.178;2022-09-09T15:01:41;23.40;97.00
37240;DHT22;23130;48.760;9.178;2022-09-09T15:04:07;23.10;97.20
37240;DHT22;23130;48.760;9.178;2022-09-09T15:06:35;23.00;97.60
37240;DHT22;23130;48.760;9.178;2022-09-09T15:09:03;22.90;98.00
37240;DHT22;23130;48.760;9.178;2022-09-09T15:11:33;22.80;98.00
37240;DHT22;23130;48.760;9.178;2022-09-09T15:14:03;22.50;97.50
37240;DHT22;23130;48.760;9.178;2022-09-09T15:16:29;22.30;97.70
37240;DHT22;23130;48.760;9.178;2022-09-09T15:18:57;22.10;98.00
37240;DHT22;23130;48.760;9.178;2022-09-09T15:21:28;22.00;97.90
37240;DHT22;23130;48.760;9.178;2022-09-09T15:23:55;21.90;98.70
37240;DHT22;23130;48.760;9.178;2022-09-09T15:26:22;21.70;98.60
37240;DHT22;23130;48.760;9.178;2022-09-09T15:28:49;21.50;99.20
37240;DHT22;23130;48.760;9.178;2022-09-09T15:31:20;21.50;99.40
37240;DHT22;23130;48.760;9.178;2022-09-09T15:36:24;21.70;99.00
37240;DHT22;23130;48.760;9.178;2022-09-09T15:38:51;21.80;98.60
37240;DHT22;23130;48.760;9.178;2022-09-09T15:41:18;21.90;99.00
37240;DHT22;23130;48.760;9.178;2022-09-09T15:43:45;22.00;98.40
37240;DHT22;23130;48.760;9.178;2022-09-09T15:48:43;21.60;98.70
37240;DHT22;23130;48.760;9.178;2022-09-09T15:51:10;21.40;99.00
37240;DHT22;23130;48.760;9.178;2022-09-09T15:53:40;21.20;98.90
37240;DHT22;23130;48.760;9.178;2022-09-09T15:56:06;21.00;99.60
37240;DHT22;23130;48.760;9.178;2022-09-09T15:58:33;20.70;99.70
37240;DHT22;23130;48.760;9.178;2022-09-09T16:01:03;20.60;99.40
37240;DHT22;23130;48.760;9.178;2022-09-09T16:03:33;20.50;99.70
37240;DHT22;23130;48.760;9.178;2022-09-09T16:05:59;20.40;99.60
37240;DHT22;23130;48.760;9.178;2022-09-09T16:08:31;20.30;99.90
37240;DHT22;23130;48.760;9.178;2022-09-09T16:10:56;20.20;99.80
37240;DHT22;23130;48.760;9.178;2022-09-09T16:13:28;20.10;99.90
37240;DHT22;23130;48.760;9.178;2022-09-09T16:15:54;20.00;99.90
37240;DHT22;23130;48.760;9.178;2022-09-09T16:18:20;20.00;99.90
37240;DHT22;23130;48.760;9.178;2022-09-09T16:20:54;20.10;99.90
37240;DHT22;23130;48.760;9.178;2022-09-09T16:23:20;20.10;99.90
37240;DHT22;23130;48.760;9.178;2022-09-09T16:25:56;20.00;99.90
37240;DHT22;23130;48.760;9.178;2022-09-09T16:28:22;20.00;99.90
37240;DHT22;23130;48.760;9.178;2022-09-09T16:30:48;20.00;99.90
37240;DHT22;23130;48.760;9.178;2022-09-09T16:33:13;20.00;99.90
37240;DHT22;23130;48.760;9.178;2022-09-09T16:35:42;19.90;99.90
37240;DHT22;23130;48.760;9.178;2022-09-09T16:38:08;19.90;99.90
37240;DHT22;23130;48.760;9.178;2022-09-09T16:40:34;19.90;99.90
37240;DHT22;23130;48.760;9.178;2022-09-09T16:43:00;19.80;99.90
37240;DHT22;23130;48.760;9.178;2022-09-09T16:45:26;19.80;99.90
37240;DHT22;23130;48.760;9.178;2022-09-09T16:47:52;19.60;99.90
37240;DHT22;23130;48.760;9.178;2022-09-09T16:50:18;19.50;99.90
37240;DHT22;23130;48.760;9.178;2022-09-09T16:52:44;19.40;99.90
37240;DHT22;23130;48.760;9.178;2022-09-09T16:55:09;19.30;99.90
37240;DHT22;23130;48.760;9.178;2022-09-09T16:57:35;19.20;99.90
37240;DHT22;23130;48.760;9.178;2022-09-09T17:00:01;19.10;99.90
37240;DHT22;23130;48.760;9.178;2022-09-09T17:02:30;18.90;99.90
37240;DHT22;23130;48.760;9.178;2022-09-09T17:04:55;18.80;99.90
37240;DHT22;23130;48.760;9.178;2022-09-09T17:07:21;18.70;99.90
37240;DHT22;23130;48.760;9.178;2022-09-09T17:09:48;18.60;99.90
37240;DHT22;23130;48.760;9.178;2022-09-09T17:12:14;18.50;99.90
37240;DHT22;23130;48.760;9.178;2022-09-09T17:14:39;18.50;99.90
37240;DHT22;23130;48.760;9.178;2022-09-09T17:17:05;18.30;99.90
37240;DHT22;23130;48.760;9.178;2022-09-09T17:19:31;18.10;99.90
37240;DHT22;23130;48.760;9.178;2022-09-09T17:21:56;18.00;99.90
37240;DHT22;23130;48.760;9.178;2022-09-09T17:24:24;17.80;99.90
37240;DHT22;23130;48.760;9.178;2022-09-09T17:26:51;17.70;99.90
37240;DHT22;23130;48.760;9.178;2022-09-09T17:29:18;17.60;99.90
37240;DHT22;23130;48.760;9.178;2022-09-09T17:31:43;17.40;99.90
37240;DHT22;23130;48.760;9.178;2022-09-09T17:34:09;17.20;99.90
37240;DHT22;23130;48.760;9.178;2022-09-09T17:36:35;17.10;99.90
37240;DHT22;23130;48.760;9.178;2022-09-09T17:39:03;16.90;99.90
37240;DHT22;23130;48.760;9.178;2022-09-09T17:41:37;16.90;99.90
37240;DHT22;23130;48.760;9.178;2022-09-09T17:44:04;16.70;99.90
37240;DHT22;23130;48.760;9.178;2022-09-09T17:46:31;16.60;99.90
37240;DHT22;23130;48.760;9.178;2022-09-09T17:49:01;16.60;99.90
37240;DHT22;23130;48.760;9.178;2022-09-09T17:51:28;16.60;99.90
37240;DHT22;23130;48.760;9.178;2022-09-09T17:54:00;16.50;99.90